Time;durP1;ratioP1;P1;durP2;ratioP2;P2;SDS_P1;SDS_P2;PMS_P1;PMS_P2;Temp;Humidity;BMP_temperature;BMP_pressure;BME280_temperature;BME280_humidity;BME280_pressure;Samples;Min_cycle;Max_cycle;Signal;HPM_P1;HPM_P2
2022/06/13 00:00:29;;;;;;;2.97;2.63;;;15.50;99.90;;;;;;5034373;28;20052;-77
2022/06/13 00:03:00;;;;;;;3.72;2.88;;;15.50;99.90;;;;;;5044348;28;20490;-77
2022/06/13 00:05:35;;;;;;;2.60;2.40;;;15.40;99.90;;;;;;5030738;28;20048;-77
2022/06/13 00:08:04;;;;;;;2.53;2.33;;;15.40;99.90;;;;;;5006499;28;20054;-77
2022/06/13 00:10:32;;;;;;;2.65;2.33;;;15.40;99.90;;;;;;5048293;28;20048;-77
2022/06/13 00:13:00;;;;;;;2.28;2.17;;;15.50;99.90;;;;;;5021120;28;20049;-77
2022/06/13 00:15:28;;;;;;;2.90;2.60;;;15.50;99.90;;;;;;5048899;28;20055;-77
2022/06/13 00:17:56;;;;;;;3.13;2.92;;;15.50;99.90;;;;;;5025509;28;20402;-77
2022/06/13 00:20:24;;;;;;;5.88;3.35;;;15.40;99.90;;;;;;5018888;28;20571;-77
2022/06/13 00:22:52;;;;;;;3.08;2.88;;;15.30;99.90;;;;;;5040890;28;20041;-77
2022/06/13 00:25:20;;;;;;;2.63;2.42;;;15.20;99.90;;;;;;5051133;28;20048;-77
2022/06/13 00:27:48;;;;;;;2.55;2.35;;;15.30;99.90;;;;;;5052112;28;20045;-78
2022/06/13 00:30:16;;;;;;;3.80;3.50;;;15.50;99.90;;;;;;5032965;28;20045;-79
2022/06/13 00:32:44;;;;;;;3.22;2.92;;;15.90;99.90;;;;;;5034232;28;20037;-76
2022/06/13 00:35:12;;;;;;;2.67;2.47;;;16.10;99.90;;;;;;5051216;28;20053;-77
2022/06/13 00:37:40;;;;;;;9.38;3.67;;;16.30;99.90;;;;;;5048425;28;20056;-77
2022/06/13 00:40:09;;;;;;;4.15;3.67;;;16.40;99.90;;;;;;5039784;28;20072;-77
2022/06/13 00:42:40;;;;;;;3.22;2.92;;;16.30;99.90;;;;;;5035301;28;20033;-77
2022/06/13 00:45:22;;;;;;;2.70;2.45;;;15.90;99.90;;;;;;5046289;28;20044;-77
2022/06/13 00:47:53;;;;;;;3.20;2.90;;;15.60;99.90;;;;;;5051429;28;20060;-77
2022/06/13 00:50:28;;;;;;;7.13;3.38;;;15.40;99.90;;;;;;5043307;28;20049;-77
2022/06/13 00:53:02;;;;;;;3.60;3.30;;;15.30;99.90;;;;;;5036360;28;20437;-80
2022/06/13 00:55:48;;;;;;;5.45;4.25;;;15.30;99.90;;;;;;5044512;28;20494;-76
2022/06/13 00:58:17;;;;;;;3.15;2.88;;;15.40;99.90;;;;;;5050443;28;20049;-77
2022/06/13 01:00:52;;;;;;;3.47;3.28;;;15.50;99.90;;;;;;5051495;28;20056;-77
2022/06/13 01:03:21;;;;;;;4.15;3.85;;;15.30;99.90;;;;;;5050397;28;20402;-77
2022/06/13 01:05:51;;;;;;;4.07;3.58;;;15.20;99.90;;;;;;5050392;28;20036;-77
2022/06/13 01:08:24;;;;;;;3.72;3.38;;;15.10;99.90;;;;;;5051186;28;20056;-77
2022/06/13 01:11:16;;;;;;;5.70;3.70;;;15.10;99.90;;;;;;5050312;28;20045;-77
2022/06/13 01:14:05;;;;;;;5.70;3.88;;;15.10;99.90;;;;;;5033197;28;20041;-77
2022/06/13 01:16:45;;;;;;;6.85;3.50;;;15.10;99.90;;;;;;5051364;28;20044;-77
2022/06/13 01:19:34;;;;;;;4.03;3.65;;;15.20;99.90;;;;;;5049243;28;20055;-76
2022/06/13 01:22:27;;;;;;;5.80;5.18;;;15.20;99.90;;;;;;5051531;28;20055;-77
2022/06/13 01:25:13;;;;;;;4.60;4.25;;;15.10;99.90;;;;;;5070397;28;20045;-77
2022/06/13 01:27:53;;;;;;;5.57;4.97;;;15.10;99.90;;;;;;5051764;28;20054;-77
2022/06/13 01:30:32;;;;;;;7.22;3.83;;;15.10;99.90;;;;;;5041770;28;20052;-77
2022/06/13 01:33:35;;;;;;;7.75;4.40;;;15.10;99.90;;;;;;5050502;28;20053;-77
2022/06/13 01:36:09;;;;;;;5.57;4.78;;;15.00;99.90;;;;;;5051010;28;20048;-77
2022/06/13 01:38:40;;;;;;;5.00;4.07;;;15.00;99.90;;;;;;5050243;28;20049;-77
2022/06/13 01:41:14;;;;;;;5.22;4.55;;;15.00;99.90;;;;;;5049659;28;20041;-77
2022/06/13 01:44:11;;;;;;;4.82;4.38;;;15.00;99.90;;;;;;5051039;28;20494;-77
2022/06/13 01:46:53;;;;;;;5.15;4.57;;;15.10;99.90;;;;;;5039168;28;20064;-77
2022/06/13 01:49:27;;;;;;;5.55;4.40;;;15.10;99.90;;;;;;5032062;28;20389;-77
2022/06/13 01:52:19;;;;;;;5.22;4.80;;;15.10;99.90;;;;;;5050510;28;20381;-77
2022/06/13 01:55:32;;;;;;;6.22;5.13;;;15.00;99.90;;;;;;5050123;28;20053;-77
2022/06/13 01:58:32;;;;;;;4.85;4.38;;;14.90;99.90;;;;;;5045675;28;20045;-77
2022/06/13 02:01:16;;;;;;;5.03;4.57;;;14.90;99.90;;;;;;5041977;28;20053;-77
2022/06/13 02:04:07;;;;;;;6.47;4.65;;;14.90;99.90;;;;;;5050124;28;20056;-77
2022/06/13 02:06:39;;;;;;;;;;;15.00;99.90;;;;;;5036731;28;20056;-77
2022/06/13 02:09:13;;;;;;;;;;;15.00;99.90;;;;;;5030258;28;19925;-77
2022/06/13 02:11:42;;;;;;;5.65;5.15;;;15.00;99.90;;;;;;5029850;28;19936;-77
2022/06/13 02:14:34;;;;;;;6.32;5.72;;;15.10;99.90;;;;;;5029975;28;20060;-77
2022/06/13 02:17:21;;;;;;;10.35;5.60;;;15.10;99.90;;;;;;5012591;28;20068;-78
2022/06/13 02:20:04;;;;;;;10.93;7.82;;;15.10;99.90;;;;;;5030395;28;20450;-77
2022/06/13 02:22:38;;;;;;;7.15;5.53;;;15.10;99.90;;;;;;5029966;28;20045;-77
2022/06/13 02:25:47;;;;;;;9.52;7.15;;;15.10;99.90;;;;;;5012372;28;20056;-77
2022/06/13 02:28:23;;;;;;;7.45;5.32;;;15.20;99.90;;;;;;5030574;28;20037;-77
2022/06/13 02:31:03;;;;;;;9.65;7.18;;;15.30;99.90;;;;;;5012677;28;20053;-77
2022/06/13 02:33:37;;;;;;;8.52;6.47;;;15.30;99.90;;;;;;5030184;28;20064;-78
2022/06/13 02:36:14;;;;;;;6.68;5.40;;;15.30;99.90;;;;;;5013568;28;20053;-78
2022/06/13 02:39:20;;;;;;;6.20;5.45;;;15.30;99.90;;;;;;5007066;28;20041;-78
2022/06/13 02:42:02;;;;;;;5.30;4.78;;;15.20;99.90;;;;;;5031497;28;20052;-80
2022/06/13 02:44:40;;;;;;;5.97;5.47;;;15.20;99.90;;;;;;5016357;28;20102;-78
2022/06/13 02:47:41;;;;;;;7.53;5.63;;;15.30;99.90;;;;;;5049835;28;20502;-79
2022/06/13 02:50:20;;;;;;;5.18;4.68;;;15.20;99.90;;;;;;5049848;28;20119;-78
2022/06/13 02:53:09;;;;;;;4.55;4.15;;;15.30;99.90;;;;;;5031746;28;20052;-80
2022/06/13 02:55:42;;;;;;;9.52;4.40;;;15.20;99.90;;;;;;5030738;28;20045;-80
2022/06/13 02:58:34;;;;;;;9.25;4.32;;;15.10;99.90;;;;;;5031534;28;20088;-80
2022/06/13 03:01:26;;;;;;;3.22;2.92;;;15.10;99.90;;;;;;5049651;28;20044;-80
2022/06/13 03:04:01;;;;;;;2.63;2.42;;;15.10;99.90;;;;;;5050235;28;20120;-79
2022/06/13 03:06:58;;;;;;;4.75;2.72;;;14.90;99.90;;;;;;5049146;28;20045;-80
2022/06/13 03:09:31;;;;;;;3.22;2.92;;;14.90;99.90;;;;;;5031425;28;20053;-80
2022/06/13 03:12:03;;;;;;;3.45;3.15;;;14.80;99.90;;;;;;5049724;28;20048;-79
2022/06/13 03:14:46;;;;;;;3.55;3.17;;;14.80;99.90;;;;;;5049633;28;20053;-80
2022/06/13 03:17:36;;;;;;;3.72;3.28;;;14.80;99.90;;;;;;5053442;28;20056;-79
2022/06/13 03:20:19;;;;;;;2.47;2.28;;;14.80;99.90;;;;;;5053871;28;20049;-79
2022/06/13 03:23:12;;;;;;;2.75;2.55;;;14.70;99.90;;;;;;5033912;28;20056;-79
2022/06/13 03:25:44;;;;;;;2.97;2.72;;;14.70;99.90;;;;;;5012922;28;20108;-79
2022/06/13 03:28:39;;;;;;;3.00;2.67;;;14.70;99.90;;;;;;5026337;28;20049;-79
2022/06/13 03:31:33;;;;;;;3.95;2.70;;;14.70;99.90;;;;;;5039290;28;20049;-79
2022/06/13 03:34:06;;;;;;;8.52;5.20;;;14.70;99.90;;;;;;5028285;28;20433;-79
2022/06/13 03:36:43;;;;;;;3.03;2.75;;;14.60;99.90;;;;;;5033477;28;20052;-79
2022/06/13 03:39:21;;;;;;;2.55;2.35;;;14.70;99.90;;;;;;5032644;28;20053;-79
2022/06/13 03:41:58;;;;;;;4.38;3.55;;;14.60;99.90;;;;;;4998188;28;20402;-79
2022/06/13 03:44:33;;;;;;;2.58;2.35;;;14.60;99.90;;;;;;5016187;28;20064;-80
2022/06/13 03:47:12;;;;;;;3.03;2.83;;;14.70;99.90;;;;;;5015234;28;20053;-79
2022/06/13 03:50:06;;;;;;;4.80;3.30;;;14.70;99.90;;;;;;4998837;28;20042;-79
2022/06/13 03:52:37;;;;;;;5.90;2.80;;;14.70;99.90;;;;;;5033264;28;20686;-78
2022/06/13 03:55:25;;;;;;;8.70;2.55;;;14.80;99.90;;;;;;5032374;28;20065;-79
2022/06/13 03:58:02;;;;;;;2.70;2.50;;;14.80;99.90;;;;;;5032591;28;20042;-80
2022/06/13 04:00:44;;;;;;;2.95;2.75;;;14.80;99.90;;;;;;5037390;28;20045;-79
2022/06/13 04:03:14;;;;;;;2.58;2.38;;;14.70;99.90;;;;;;5052385;28;20037;-79
2022/06/13 04:05:53;;;;;;;2.93;2.67;;;14.70;99.90;;;;;;5031115;28;20046;-79
2022/06/13 04:08:21;;;;;;;3.70;3.40;;;14.70;99.90;;;;;;5015230;28;20596;-79
2022/06/13 04:11:31;;;;;;;;;;;14.70;99.90;;;;;;5031862;28;20046;-80
2022/06/13 04:13:59;;;;;;;4.38;3.95;;;14.70;99.90;;;;;;4955262;28;20324;-79
2022/06/13 04:16:32;;;;;;;4.15;3.75;;;14.70;99.90;;;;;;4955777;28;20091;-79
2022/06/13 04:19:17;;;;;;;5.20;3.33;;;14.70;99.90;;;;;;4995427;28;20050;-79
2022/06/13 04:21:53;;;;;;;3.25;2.95;;;14.80;99.90;;;;;;5031882;28;20585;-79
2022/06/13 04:24:40;;;;;;;4.28;3.95;;;14.90;99.90;;;;;;5014313;28;20053;-79
2022/06/13 04:27:21;;;;;;;2.80;2.50;;;14.90;99.90;;;;;;5031182;28;20050;-79
2022/06/13 04:30:09;;;;;;;4.28;3.28;;;14.90;99.90;;;;;;5031866;28;20041;-79
2022/06/13 04:32:56;;;;;;;4.63;3.72;;;15.00;99.90;;;;;;5014811;28;20064;-80
2022/06/13 04:35:25;;;;;;;3.63;3.03;;;15.00;99.90;;;;;;4983756;28;20048;-80
2022/06/13 04:37:53;;;;;;;4.72;3.58;;;15.00;99.90;;;;;;5008983;28;20046;-80
2022/06/13 04:41:10;;;;;;;4.15;3.47;;;15.00;99.90;;;;;;5009365;28;20057;-79
2022/06/13 04:44:55;;;;;;;18.42;4.25;;;15.10;99.90;;;;;;4986418;28;20053;-81
2022/06/13 04:48:03;;;;;;;6.53;4.25;;;15.10;99.90;;;;;;4976590;28;20519;-80
2022/06/13 04:50:43;;;;;;;4.10;3.53;;;15.10;99.90;;;;;;4989384;28;20154;-79
2022/06/13 04:53:37;;;;;;;4.72;4.30;;;15.20;99.90;;;;;;4985549;28;20042;-79
2022/06/13 04:56:27;;;;;;;4.88;3.70;;;15.20;99.90;;;;;;4989731;28;20065;-80
2022/06/13 04:59:03;;;;;;;5.40;5.00;;;15.10;99.90;;;;;;4981967;28;20049;-80
2022/06/13 05:01:54;;;;;;;5.60;5.10;;;15.20;99.90;;;;;;4991624;28;20060;-79
2022/06/13 05:04:41;;;;;;;4.93;4.40;;;15.20;99.90;;;;;;5009813;28;20050;-81
2022/06/13 05:07:22;;;;;;;10.77;6.47;;;15.30;99.90;;;;;;5009579;28;20049;-79
2022/06/13 05:10:00;;;;;;;6.22;5.63;;;15.30;99.90;;;;;;5030951;28;20045;-79
2022/06/13 05:12:54;;;;;;;5.15;4.65;;;15.40;99.90;;;;;;4997556;28;20502;-80
2022/06/13 05:15:30;;;;;;;6.60;4.80;;;15.50;99.90;;;;;;5010033;28;20056;-80
2022/06/13 05:18:10;;;;;;;5.97;5.07;;;15.50;99.90;;;;;;4996470;28;20038;-79
2022/06/13 05:21:11;;;;;;;7.78;6.10;;;15.60;99.90;;;;;;5031331;28;20049;-80
2022/06/13 05:23:57;;;;;;;6.45;5.18;;;15.60;99.90;;;;;;5023282;28;20045;-80
2022/06/13 05:26:29;;;;;;;8.10;7.03;;;15.60;99.90;;;;;;5010806;28;20045;-79
2022/06/13 05:28:59;;;;;;;6.88;6.38;;;15.60;99.90;;;;;;5010874;28;20042;-80
2022/06/13 05:31:29;;;;;;;7.63;6.93;;;15.70;99.90;;;;;;5005540;28;20053;-80
2022/06/13 05:33:58;;;;;;;6.25;5.65;;;15.70;99.90;;;;;;5026253;28;20061;-79
2022/06/13 05:36:27;;;;;;;6.85;5.65;;;15.70;99.90;;;;;;5005841;28;20054;-79
2022/06/13 05:39:00;;;;;;;7.95;5.68;;;15.80;99.90;;;;;;5012140;28;20057;-79
2022/06/13 05:41:28;;;;;;;6.45;5.68;;;15.80;99.90;;;;;;4995917;28;20037;-79
2022/06/13 05:43:56;;;;;;;8.55;6.75;;;15.80;99.90;;;;;;5017028;28;20414;-79
2022/06/13 05:46:33;;;;;;;8.55;4.25;;;15.80;99.90;;;;;;5008898;28;20056;-79
2022/06/13 05:49:05;;;;;;;6.90;4.47;;;15.80;99.90;;;;;;5049803;28;20048;-79
2022/06/13 05:51:33;;;;;;;3.95;3.65;;;15.80;99.90;;;;;;5050965;28;20493;-79
2022/06/13 05:54:00;;;;;;;5.60;3.90;;;15.70;99.90;;;;;;5016410;28;20041;-79
2022/06/13 05:56:29;;;;;;;9.38;4.03;;;15.70;99.90;;;;;;5050494;28;20052;-79
2022/06/13 05:58:57;;;;;;;6.53;3.90;;;15.60;99.90;;;;;;5050106;28;20064;-79
2022/06/13 06:01:25;;;;;;;3.67;3.35;;;15.70;99.90;;;;;;5032196;28;20045;-79
2022/06/13 06:03:52;;;;;;;3.72;3.40;;;15.70;99.90;;;;;;5032886;28;20067;-79
2022/06/13 06:06:26;;;;;;;4.20;3.80;;;15.70;99.90;;;;;;5012297;28;20065;-79
2022/06/13 06:08:55;;;;;;;9.32;4.97;;;15.70;99.90;;;;;;5029793;28;20049;-79
2022/06/13 06:11:24;;;;;;;4.25;3.75;;;15.70;99.90;;;;;;4988001;28;20044;-79
2022/06/13 06:13:52;;;;;;;5.65;3.45;;;15.70;99.90;;;;;;5059150;28;20048;-80
2022/06/13 06:16:22;;;;;;;5.30;3.25;;;15.70;99.90;;;;;;5051698;28;20402;-80
2022/06/13 06:18:51;;;;;;;4.85;3.00;;;15.70;99.90;;;;;;5056509;28;20060;-79
2022/06/13 06:21:19;;;;;;;3.75;3.45;;;15.70;99.90;;;;;;5058313;28;20045;-79
2022/06/13 06:23:47;;;;;;;4.28;3.97;;;15.70;99.90;;;;;;5043128;28;20049;-79
2022/06/13 06:26:22;;;;;;;3.08;2.80;;;15.80;99.90;;;;;;5020249;28;20045;-79
2022/06/13 06:28:51;;;;;;;5.18;3.50;;;15.80;99.90;;;;;;5025454;28;20045;-79
2022/06/13 06:31:19;;;;;;;3.13;2.92;;;16.00;99.90;;;;;;5025788;28;20049;-80
2022/06/13 06:33:47;;;;;;;4.97;3.03;;;16.10;99.90;;;;;;5036501;28;20037;-80
2022/06/13 06:36:16;;;;;;;3.83;2.95;;;16.10;99.90;;;;;;5030385;28;20057;-79
2022/06/13 06:38:45;;;;;;;4.00;3.60;;;16.30;99.90;;;;;;5020118;28;20037;-79
2022/06/13 06:41:14;;;;;;;3.00;2.80;;;16.30;99.90;;;;;;5029321;28;20494;-79
2022/06/13 06:43:42;;;;;;;4.13;3.72;;;16.30;99.90;;;;;;5030442;28;20046;-80
2022/06/13 06:46:12;;;;;;;3.58;2.60;;;16.40;99.90;;;;;;5012204;28;20065;-80
2022/06/13 06:48:42;;;;;;;4.85;3.58;;;16.60;99.90;;;;;;5013524;28;20045;-80
2022/06/13 06:51:13;;;;;;;4.30;3.90;;;16.50;99.90;;;;;;5016002;28;20045;-79
2022/06/13 07:02:01;;;;;;;4.47;3.72;;;16.50;99.90;;;;;;5050279;28;20509;-80
2022/06/13 07:04:29;;;;;;;4.13;3.83;;;16.60;99.90;;;;;;5047476;28;20059;-82
2022/06/13 07:12:09;;;;;;;2.60;2.42;;;16.50;99.90;;;;;;4985429;28;20038;-81
2022/06/13 07:21:11;;;;;;;2.35;2.15;;;16.50;99.90;;;;;;5003470;28;20045;-83
2022/06/13 07:25:30;;;;;;;3.10;2.35;;;16.40;99.90;;;;;;5028091;28;20049;-83
2022/06/13 07:28:52;;;;;;;2.30;2.08;;;16.50;99.90;;;;;;5000986;28;20045;-83
2022/06/13 07:32:42;;;;;;;2.67;2.10;;;16.50;99.90;;;;;;5016507;28;20060;-84
2022/06/13 07:36:05;;;;;;;2.10;1.98;;;16.60;99.90;;;;;;5009838;28;20041;-83
2022/06/13 07:38:33;;;;;;;4.18;3.45;;;16.50;99.90;;;;;;5035124;28;20061;-83
2022/06/13 07:41:01;;;;;;;2.67;2.10;;;16.60;99.90;;;;;;5035312;28;20060;-83
2022/06/13 07:43:36;;;;;;;3.88;3.45;;;16.60;99.90;;;;;;5017344;28;20096;-81
2022/06/13 07:46:11;;;;;;;1.83;1.73;;;16.60;99.90;;;;;;5032573;28;20045;-80
2022/06/13 07:48:40;;;;;;;2.40;2.20;;;16.60;99.90;;;;;;5015003;28;20056;-80
2022/06/13 07:51:09;;;;;;;2.30;2.10;;;16.70;99.90;;;;;;5032911;28;20056;-80
2022/06/13 07:53:37;;;;;;;2.85;2.20;;;16.80;99.90;;;;;;5031741;28;20406;-79
2022/06/13 07:56:28;;;;;;;3.92;2.05;;;16.80;99.90;;;;;;5035495;28;20501;-78
2022/06/13 07:58:57;;;;;;;3.50;2.75;;;16.70;99.90;;;;;;5032288;28;20061;-81
2022/06/13 08:01:26;;;;;;;2.28;2.08;;;16.60;99.90;;;;;;5043685;28;20048;-81
2022/06/13 08:03:55;;;;;;;2.20;2.08;;;16.60;99.90;;;;;;5034843;28;20529;-80
2022/06/13 08:06:25;;;;;;;4.53;2.00;;;16.60;99.90;;;;;;5052003;28;20045;-79
2022/06/13 08:08:53;;;;;;;3.40;2.45;;;16.60;99.90;;;;;;5034204;28;20048;-82
2022/06/13 08:11:34;;;;;;;2.80;2.60;;;16.60;99.90;;;;;;5052180;28;20501;-81
2022/06/13 08:14:06;;;;;;;6.03;3.17;;;16.60;99.90;;;;;;5052324;28;20045;-80
2022/06/13 08:16:34;;;;;;;2.92;2.70;;;16.60;99.90;;;;;;5046900;28;20056;-80
2022/06/13 08:19:04;;;;;;;2.95;2.25;;;16.60;99.90;;;;;;5048944;28;20071;-78
2022/06/13 08:21:34;;;;;;;3.30;2.50;;;16.60;99.90;;;;;;5051579;28;20045;-79
2022/06/13 08:24:03;;;;;;;3.10;2.70;;;16.60;99.90;;;;;;5015328;28;20053;-78
2022/06/13 08:26:41;;;;;;;4.05;2.55;;;16.60;99.90;;;;;;5013747;28;20057;-77
2022/06/13 08:29:09;;;;;;;3.25;3.03;;;16.60;99.90;;;;;;5031832;28;20049;-79
2022/06/13 08:31:37;;;;;;;9.55;3.38;;;16.60;99.90;;;;;;5032021;28;20045;-80
2022/06/13 08:34:06;;;;;;;3.33;3.05;;;16.70;99.90;;;;;;5031700;28;20046;-82
2022/06/13 08:36:34;;;;;;;2.42;2.28;;;16.90;99.90;;;;;;5014576;28;20080;-79
2022/06/13 08:39:02;;;;;;;3.20;2.88;;;17.10;99.90;;;;;;5031479;28;20411;-77
2022/06/13 08:41:59;;;;;;;2.60;2.40;;;17.20;99.90;;;;;;5041875;28;20037;-78
2022/06/13 08:44:54;;;;;;;3.60;2.53;;;17.30;99.90;;;;;;4964533;28;20047;-78
2022/06/13 08:47:40;;;;;;;3.88;3.53;;;17.30;99.90;;;;;;5051025;28;20049;-79
2022/06/13 08:50:31;;;;;;;3.03;2.83;;;17.50;99.90;;;;;;5051191;28;20064;-78
2022/06/13 08:53:11;;;;;;;3.17;2.88;;;17.60;99.90;;;;;;5051258;28;20045;-81
2022/06/13 08:55:47;;;;;;;3.20;2.90;;;17.40;99.90;;;;;;5033575;28;20045;-79
2022/06/13 08:58:30;;;;;;;3.83;2.75;;;17.30;99.90;;;;;;5040582;28;20052;-80
2022/06/13 09:01:06;;;;;;;4.25;3.95;;;17.30;99.90;;;;;;5039631;28;20084;-77
2022/06/13 09:04:00;;;;;;;3.92;3.55;;;17.30;99.90;;;;;;5023240;28;20041;-77
2022/06/13 09:06:54;;;;;;;5.32;4.15;;;17.30;99.90;;;;;;5038626;28;20407;-84
2022/06/13 09:10:10;;;;;;;5.25;4.80;;;17.30;99.90;;;;;;5027349;28;20104;-83
2022/06/13 09:12:52;;;;;;;7.68;5.15;;;17.30;99.90;;;;;;5038796;28;20455;-84
2022/06/13 09:15:25;;;;;;;8.63;3.83;;;17.40;99.90;;;;;;4988508;28;20508;-73
2022/06/13 09:17:55;;;;;;;10.10;4.38;;;17.60;99.90;;;;;;5049597;28;20045;-74
2022/06/13 09:20:33;;;;;;;5.88;4.68;;;17.80;99.90;;;;;;5045420;28;20052;-74
2022/06/13 09:23:01;;;;;;;5.75;3.90;;;17.80;99.90;;;;;;5048522;28;20040;-75
2022/06/13 09:25:42;;;;;;;10.52;5.07;;;17.80;99.90;;;;;;5043259;28;20052;-76
2022/06/13 09:28:10;;;;;;;;;;;17.80;99.90;;;;;;5040295;28;20052;-74
2022/06/13 09:30:48;;;;;;;7.97;4.07;;;17.90;99.90;;;;;;5040003;28;20385;-73
2022/06/13 09:33:49;;;;;;;7.90;4.70;;;18.20;99.90;;;;;;5040909;28;20525;-75
2022/06/13 09:36:16;;;;;;;3.30;3.10;;;18.40;99.90;;;;;;5026035;28;20045;-74
2022/06/13 09:38:53;;;;;;;5.00;3.55;;;18.50;99.90;;;;;;5041062;28;20291;-75
2022/06/13 09:41:45;;;;;;;3.72;3.10;;;18.70;99.90;;;;;;5022531;28;20056;-73
2022/06/13 09:44:34;;;;;;;6.07;3.88;;;18.50;99.90;;;;;;5040406;28;20041;-73
2022/06/13 09:47:23;;;;;;;4.68;3.60;;;18.30;99.90;;;;;;5043730;28;20076;-73
2022/06/13 09:49:56;;;;;;;5.45;3.97;;;18.10;99.90;;;;;;5040812;28;20041;-74
2022/06/13 09:52:39;;;;;;;8.05;2.97;;;18.10;99.90;;;;;;5041993;28;20041;-74
2022/06/13 09:55:21;;;;;;;8.10;4.07;;;18.30;99.90;;;;;;5040555;28;20084;-74
2022/06/13 09:57:55;;;;;;;3.80;2.90;;;18.60;99.90;;;;;;5037548;28;20048;-73
2022/06/13 10:00:36;;;;;;;7.85;4.35;;;18.70;99.90;;;;;;5041415;28;20057;-74
2022/06/13 10:03:20;;;;;;;5.20;2.78;;;18.90;99.90;;;;;;5039890;28;20048;-75
2022/06/13 10:05:50;;;;;;;5.10;4.68;;;18.90;99.90;;;;;;5039407;28;20044;-75
2022/06/13 10:08:46;;;;;;;3.30;2.65;;;19.00;99.90;;;;;;5043872;28;20037;-74
2022/06/13 10:11:42;;;;;;;2.45;2.15;;;18.90;99.90;;;;;;5041446;28;20052;-75
2022/06/13 10:14:20;;;;;;;4.43;3.70;;;18.70;99.90;;;;;;5038653;28;20069;-74
2022/06/13 10:16:48;;;;;;;9.07;2.90;;;18.70;99.90;;;;;;5040081;28;20048;-75
2022/06/13 10:19:35;;;;;;;6.63;3.00;;;18.90;99.90;;;;;;5040497;28;20067;-74
2022/06/13 10:22:31;;;;;;;6.13;2.53;;;19.00;99.90;;;;;;5040442;28;20052;-75
2022/06/13 10:25:09;;;;;;;3.67;2.83;;;19.20;99.90;;;;;;5037607;28;20072;-75
2022/06/13 10:28:08;;;;;;;5.28;2.67;;;19.50;99.90;;;;;;5040972;28;20048;-74
2022/06/13 10:31:05;;;;;;;2.58;2.38;;;19.50;99.90;;;;;;5022660;28;20078;-75
2022/06/13 10:33:42;;;;;;;2.65;2.30;;;19.20;99.90;;;;;;5023078;28;20045;-76
2022/06/13 10:36:19;;;;;;;4.72;2.55;;;19.00;99.90;;;;;;5039250;28;20037;-74
2022/06/13 10:38:55;;;;;;;5.57;2.45;;;18.80;99.90;;;;;;5046916;28;20852;-74
2022/06/13 10:41:25;;;;;;;2.28;2.00;;;18.70;99.90;;;;;;5038123;28;20051;-74
2022/06/13 10:43:55;;;;;;;7.18;2.67;;;18.70;99.90;;;;;;5038833;28;20406;-74
2022/06/13 10:46:25;;;;;;;1.63;1.50;;;18.70;99.90;;;;;;5038588;28;20403;-74
2022/06/13 10:49:17;;;;;;;1.75;1.52;;;18.70;99.90;;;;;;5039917;28;20052;-74
2022/06/13 10:51:46;;;;;;;1.77;1.60;;;18.80;99.90;;;;;;5040039;28;20046;-74
2022/06/13 10:54:29;;;;;;;3.85;2.38;;;19.10;99.90;;;;;;5038105;28;20486;-74
2022/06/13 10:57:03;;;;;;;12.60;2.55;;;19.40;99.90;;;;;;5036502;28;20054;-74
2022/06/13 10:59:34;;;;;;;2.97;2.75;;;19.50;99.90;;;;;;5034346;28;20415;-74
2022/06/13 11:02:04;;;;;;;6.07;2.20;;;19.50;99.90;;;;;;5039160;28;20045;-76
2022/06/13 11:04:37;;;;;;;4.90;2.30;;;19.30;99.90;;;;;;5036276;28;20052;-76
2022/06/13 11:07:15;;;;;;;3.95;2.08;;;19.00;99.90;;;;;;5038946;28;20045;-75
2022/06/13 11:09:56;;;;;;;2.17;1.90;;;18.70;99.90;;;;;;5037555;28;20046;-74
2022/06/13 11:12:34;;;;;;;;;;;18.70;99.90;;;;;;5040135;28;20111;-74
2022/06/13 11:24:11;;;;;;;2.63;2.20;;;19.80;99.90;;;;;;5027658;28;20045;-75
2022/06/13 11:29:29;;;;;;;4.82;2.30;;;19.40;99.90;;;;;;5037837;28;20169;-76
2022/06/13 11:32:00;;;;;;;2.15;1.98;;;19.10;99.90;;;;;;5037923;28;20042;-76
2022/06/13 11:34:29;;;;;;;1.65;1.55;;;19.00;99.90;;;;;;5038789;28;20045;-77
2022/06/13 11:37:12;;;;;;;2.35;2.08;;;18.90;99.90;;;;;;5023555;28;20045;-77
2022/06/13 11:40:17;;;;;;;5.43;2.53;;;18.80;99.90;;;;;;5023995;28;20044;-77
2022/06/13 11:42:51;;;;;;;2.65;1.70;;;18.70;99.90;;;;;;5043876;28;20478;-77
2022/06/13 11:45:26;;;;;;;4.70;2.17;;;19.00;99.90;;;;;;5041233;28;20402;-78
2022/06/13 11:47:54;;;;;;;3.70;2.42;;;19.20;99.90;;;;;;5041198;28;20053;-76
2022/06/13 11:50:27;;;;;;;3.83;2.35;;;19.10;99.90;;;;;;5024038;28;20755;-77
2022/06/13 11:55:56;;;;;;;2.03;1.92;;;19.60;99.90;;;;;;5041655;28;20053;-79
2022/06/13 11:58:30;;;;;;;1.75;1.55;;;20.00;99.90;;;;;;5041048;28;20045;-77
2022/06/13 12:01:37;;;;;;;1.98;1.80;;;19.70;99.90;;;;;;5042805;28;20063;-76
2022/06/13 12:04:11;;;;;;;2.72;1.58;;;19.40;99.90;;;;;;5040682;28;20068;-77
2022/06/13 12:06:59;;;;;;;2.08;1.63;;;19.60;99.90;;;;;;5040256;28;20057;-76
2022/06/13 12:09:36;;;;;;;4.95;2.10;;;20.00;99.90;;;;;;5041114;28;20041;-76
2022/06/13 12:12:08;;;;;;;6.50;2.47;;;20.20;99.90;;;;;;5040323;28;20052;-76
2022/06/13 12:14:42;;;;;;;4.85;1.73;;;20.30;99.90;;;;;;5040149;28;20136;-80
2022/06/13 12:17:31;;;;;;;2.00;1.80;;;20.40;99.90;;;;;;5006884;28;20048;-76
2022/06/13 12:30:18;;;;;;;7.68;2.65;;;20.00;99.90;;;;;;5043095;28;20052;-76
2022/06/13 12:44:37;;;;;;;2.90;1.70;;;20.70;99.90;;;;;;5039464;28;20501;-82
2022/06/13 12:54:01;;;;;;;2.40;1.90;;;20.10;99.90;;;;;;5040008;28;20034;-82
2022/06/13 13:03:06;;;;;;;6.32;3.00;;;20.70;99.90;;;;;;5041109;28;20040;-75
2022/06/13 13:18:22;;;;;;;2.83;2.47;;;20.40;99.90;;;;;;5046314;28;20041;-79
2022/06/13 13:21:59;;;;;;;2.28;2.08;;;20.30;99.90;;;;;;5032759;28;20049;-78
2022/06/13 13:24:36;;;;;;;3.67;1.90;;;20.40;99.90;;;;;;5024109;28;20041;-77
2022/06/13 13:27:09;;;;;;;1.38;1.33;;;20.60;99.90;;;;;;5025680;28;20048;-78
2022/06/13 13:30:42;;;;;;;2.13;1.92;;;20.80;99.90;;;;;;5022125;28;20068;-79
2022/06/13 13:33:49;;;;;;;1.63;1.52;;;20.80;99.90;;;;;;5043397;28;20047;-81
2022/06/13 13:37:08;;;;;;;2.58;2.38;;;20.90;99.90;;;;;;4968937;28;20058;-83
2022/06/13 13:40:28;;;;;;;13.55;3.15;;;21.10;99.90;;;;;;5013858;28;20045;-80
2022/06/13 13:44:32;;;;;;;2.47;2.05;;;20.90;99.90;;;;;;5037665;28;20101;-79
2022/06/13 13:47:11;;;;;;;3.72;1.85;;;20.30;99.90;;;;;;5038337;28;20057;-78
2022/06/13 13:49:48;;;;;;;3.00;1.95;;;20.10;99.90;;;;;;5045029;28;20056;-78
2022/06/13 13:53:21;;;;;;;6.90;3.40;;;20.00;99.90;;;;;;5041477;28;20052;-79
2022/06/13 13:56:37;;;;;;;3.72;1.88;;;19.80;99.90;;;;;;5035097;28;20115;-86
2022/06/13 13:59:12;;;;;;;2.10;1.90;;;19.60;99.90;;;;;;5037751;28;20392;-82
2022/06/13 14:02:06;;;;;;;2.13;1.88;;;20.00;99.90;;;;;;5038027;28;20048;-82
2022/06/13 14:04:44;;;;;;;9.63;2.75;;;20.40;99.90;;;;;;5035791;28;20051;-86
2022/06/13 14:15:03;;;;;;;5.10;2.55;;;20.80;99.90;;;;;;5022212;28;20049;-81
2022/06/13 14:27:53;;;;;;;1.50;1.40;;;20.80;99.90;;;;;;5037296;28;20041;-82
2022/06/13 14:45:13;;;;;;;2.88;1.95;;;20.60;99.90;;;;;;5036996;28;20724;-82
2022/06/13 14:48:52;;;;;;;3.97;2.65;;;21.00;99.90;;;;;;5024541;28;20077;-84
2022/06/13 14:51:54;;;;;;;6.70;1.77;;;21.20;99.90;;;;;;5018270;28;20041;-84
2022/06/13 14:55:27;;;;;;;6.38;2.50;;;21.10;99.90;;;;;;5018156;28;20036;-86
2022/06/13 14:58:45;;;;;;;3.35;1.77;;;20.90;99.90;;;;;;5022821;28;20045;-81
2022/06/13 15:28:19;;;;;;;3.08;1.52;;;20.80;99.90;;;;;;5027406;28;20036;-86
2022/06/13 15:31:53;;;;;;;2.33;1.88;;;21.00;99.90;;;;;;4997034;28;20045;-85
2022/06/13 15:40:26;;;;;;;2.25;2.00;;;20.80;99.90;;;;;;5033599;28;20595;-83
2022/06/13 15:53:50;;;;;;;3.42;1.70;;;19.90;99.90;;;;;;5019685;28;20049;-87
2022/06/13 15:57:19;;;;;;;9.15;2.00;;;20.30;99.90;;;;;;5027089;28;20059;-87
2022/06/13 15:59:51;;;;;;;2.85;1.85;;;20.60;99.60;;;;;;5049603;23;20042;-85
2022/06/13 16:03:26;;;;;;;3.13;1.52;;;20.80;99.90;;;;;;5007941;28;20045;-87
2022/06/13 16:31:18;;;;;;;1.63;1.52;;;20.60;99.00;;;;;;4971767;28;20042;-85
2022/06/13 16:34:20;;;;;;;;;;;20.40;98.40;;;;;;4953244;28;20077;-78
2022/06/13 16:36:50;;;;;;;5.85;1.75;;;20.30;98.00;;;;;;4967800;28;19922;-78
2022/06/13 16:39:53;;;;;;;3.72;1.33;;;20.30;99.80;;;;;;4967218;28;20050;-80
2022/06/13 16:51:46;;;;;;;3.75;1.65;;;20.00;98.00;;;;;;4978658;28;20045;-82
2022/06/13 16:59:26;;;;;;;1.50;1.40;;;20.30;99.60;;;;;;5006240;28;20395;-82
2022/06/13 17:01:58;;;;;;;3.10;2.05;;;20.30;98.70;;;;;;5035735;28;20406;-85
2022/06/13 17:05:31;;;;;;;1.55;1.27;;;20.30;98.30;;;;;;5041681;28;20056;-82
2022/06/13 17:13:23;;;;;;;1.50;1.40;;;20.10;98.40;;;;;;5040341;28;20050;-80
2022/06/13 17:16:56;;;;;;;2.75;1.55;;;20.10;99.90;;;;;;5043746;28;20049;-86
2022/06/13 17:20:29;;;;;;;1.75;1.42;;;20.00;98.90;;;;;;5025819;28;20052;-83
2022/06/13 17:23:31;;;;;;;2.75;2.53;;;20.00;99.70;;;;;;5035124;28;20053;-81
2022/06/13 17:35:40;;;;;;;5.65;1.60;;;20.00;98.10;;;;;;5040927;28;20052;-85
2022/06/13 17:38:41;;;;;;;3.45;2.00;;;19.90;99.00;;;;;;5039486;28;20049;-83